Time;durP1;ratioP1;P1;durP2;ratioP2;P2;SDS_P1;SDS_P2;PMS_P1;PMS_P2;Temp;Humidity;BMP_temperature;BMP_pressure;BME280_temperature;BME280_humidity;BME280_pressure;Samples;Min_cycle;Max_cycle;Signal;HPM_P1;HPM_P2
2021/04/15 00:01:10;;;;;;;16.00;13.10;;;;;;;2.43;73.98;100410.69;4975947;28;20284;-71
2021/04/15 00:03:37;;;;;;;13.75;12.35;;;;;;;2.28;74.60;100409.06;4975347;28;20268;-69
2021/04/15 00:06:07;;;;;;;15.45;12.77;;;;;;;2.38;74.17;100409.88;4975514;28;20303;-72
2021/04/15 00:08:33;;;;;;;15.45;13.02;;;;;;;2.31;74.52;100403.75;4975687;28;20675;-71
2021/04/15 00:11:00;;;;;;;12.60;11.27;;;;;;;2.35;74.77;100405.44;4975208;28;20193;-71
2021/04/15 00:13:32;;;;;;;16.27;14.20;;;;;;;2.10;75.62;100404.84;4975579;28;20211;-70
2021/04/15 00:15:59;;;;;;;14.00;12.60;;;;;;;2.18;75.40;100402.13;4975684;28;20659;-72
2021/04/15 00:18:25;;;;;;;16.52;13.00;;;;;;;2.05;75.53;100398.69;4975599;28;20200;-70
2021/04/15 00:20:51;;;;;;;16.40;13.02;;;;;;;1.98;76.15;100399.66;4975316;28;20218;-71
2021/04/15 00:23:19;;;;;;;18.67;14.32;;;;;;;2.08;75.79;100396.91;4975543;28;20579;-70
2021/04/15 00:25:45;;;;;;;15.63;13.90;;;;;;;1.93;76.36;100389.09;4975041;28;20204;-71
2021/04/15 00:28:11;;;;;;;18.63;12.75;;;;;;;2.02;76.20;100393.44;4975066;28;20242;-70
2021/04/15 00:30:38;;;;;;;14.82;13.02;;;;;;;2.14;75.47;100400.38;4975408;28;20263;-70
2021/04/15 00:33:07;;;;;;;17.67;13.40;;;;;;;2.07;75.71;100395.13;4975297;28;20679;-71
2021/04/15 00:35:34;;;;;;;14.85;12.93;;;;;;;2.32;74.84;100388.66;4975177;28;20208;-71
2021/04/15 00:38:00;;;;;;;18.75;13.95;;;;;;;2.15;75.25;100389.75;4975316;28;20518;-70
2021/04/15 00:40:28;;;;;;;15.85;13.23;;;;;;;2.00;76.09;100382.81;4974690;28;20204;-71
2021/04/15 00:42:55;;;;;;;16.20;13.43;;;;;;;2.06;76.17;100390.72;4975165;28;20323;-68
2021/04/15 00:45:24;;;;;;;16.35;14.18;;;;;;;1.87;76.80;100386.47;4974759;28;20212;-71
2021/04/15 00:47:56;;;;;;;16.95;14.05;;;;;;;1.99;76.48;100386.38;4975149;28;20290;-71
2021/04/15 00:50:30;;;;;;;18.63;14.38;;;;;;;2.07;76.09;100389.81;4975094;28;20195;-72
2021/04/15 00:52:59;;;;;;;15.88;14.02;;;;;;;2.18;75.88;100386.19;4974916;28;20278;-71
2021/04/15 00:55:30;;;;;;;17.30;12.63;;;;;;;2.01;76.29;100381.94;4974861;28;20238;-70
2021/04/15 00:57:57;;;;;;;16.17;13.98;;;;;;;2.10;76.15;100380.94;4974617;28;20193;-69
2021/04/15 01:00:27;;;;;;;17.48;13.30;;;;;;;2.24;75.56;100378.13;4974849;28;20204;-70
2021/04/15 01:02:54;;;;;;;14.93;12.65;;;;;;;2.13;75.70;100374.72;4974608;28;20716;-72
2021/04/15 01:05:27;;;;;;;19.95;14.00;;;;;;;2.07;75.83;100376.53;4974480;28;20206;-70
2021/04/15 01:07:54;;;;;;;18.63;13.32;;;;;;;1.98;76.35;100381.06;4974773;28;20547;-69
2021/04/15 01:10:22;;;;;;;15.75;14.07;;;;;;;2.03;76.35;100379.22;4974715;28;20638;-69
2021/04/15 01:13:09;;;;;;;18.98;12.85;;;;;;;2.03;76.03;100380.09;4974390;28;20200;-70
2021/04/15 01:15:51;;;;;;;14.20;12.40;;;;;;;1.91;76.30;100374.06;4974587;28;20215;-70
2021/04/15 01:18:25;;;;;;;14.40;12.90;;;;;;;2.05;75.74;100377.44;4974259;28;20195;-69
2021/04/15 01:21:23;;;;;;;15.82;12.25;;;;;;;2.01;76.19;100375.72;4974439;28;20195;-69
2021/04/15 01:23:57;;;;;;;14.75;13.00;;;;;;;1.96;76.23;100378.41;4973619;28;20215;-71
2021/04/15 01:26:51;;;;;;;15.18;12.77;;;;;;;1.87;76.76;100384.69;4974024;28;20218;-70
2021/04/15 01:29:25;;;;;;;16.58;13.13;;;;;;;1.79;76.88;100378.59;4974557;28;20188;-70
2021/04/15 01:32:00;;;;;;;13.45;12.07;;;;;;;1.74;77.20;100377.78;4974307;28;20589;-69
2021/04/15 01:34:38;;;;;;;15.80;13.20;;;;;;;1.85;77.01;100378.56;4974554;28;20223;-69
2021/04/15 01:37:17;;;;;;;14.65;13.10;;;;;;;1.89;76.70;100374.06;4974246;28;20195;-69
2021/04/15 01:39:48;;;;;;;14.32;12.75;;;;;;;1.78;77.10;100373.31;4974024;28;20213;-72
2021/04/15 01:42:20;;;;;;;15.82;14.13;;;;;;;1.70;77.31;100375.13;4973931;28;20274;-71
2021/04/15 01:44:50;;;;;;;19.63;14.57;;;;;;;1.67;77.97;100376.97;4974090;28;20192;-71
2021/04/15 01:47:22;;;;;;;17.23;13.68;;;;;;;1.79;77.34;100370.63;4974168;28;20187;-71
2021/04/15 01:49:53;;;;;;;16.33;14.55;;;;;;;1.80;77.16;100375.03;4974212;28;20916;-70
2021/04/15 01:52:20;;;;;;;21.30;14.77;;;;;;;1.72;77.75;100378.66;4974030;28;20608;-71
2021/04/15 01:54:51;;;;;;;15.93;13.52;;;;;;;1.82;77.09;100359.97;4973694;28;20557;-70
2021/04/15 01:57:23;;;;;;;15.55;12.95;;;;;;;1.73;77.77;100370.69;4973987;28;20195;-72
2021/04/15 01:59:58;;;;;;;17.85;13.95;;;;;;;1.90;77.18;100372.28;4973487;28;20188;-71
2021/04/15 02:02:28;;;;;;;16.90;14.07;;;;;;;1.73;77.38;100364.50;4973602;28;20235;-69
2021/04/15 02:04:59;;;;;;;17.27;15.38;;;;;;;1.65;77.86;100372.53;4973628;28;20189;-71
2021/04/15 02:07:29;;;;;;;17.35;14.40;;;;;;;1.58;77.90;100371.75;4973581;28;20189;-70
2021/04/15 02:09:58;;;;;;;15.73;14.02;;;;;;;1.52;78.48;100368.25;4973795;28;20674;-72
2021/04/15 02:12:26;;;;;;;18.67;14.23;;;;;;;1.45;78.47;100370.09;4973438;28;20203;-70
2021/04/15 02:14:59;;;;;;;16.55;14.05;;;;;;;1.35;78.99;100368.38;4973992;28;20645;-70
2021/04/15 02:17:26;;;;;;;16.73;14.80;;;;;;;1.39;78.98;100370.13;4973837;28;20254;-70
2021/04/15 02:19:58;;;;;;;17.95;15.00;;;;;;;1.55;78.36;100370.88;4973543;28;20246;-70
2021/04/15 02:22:32;;;;;;;18.30;15.20;;;;;;;1.58;78.18;100370.84;4973862;28;20678;-68
2021/04/15 02:25:02;;;;;;;15.82;14.13;;;;;;;1.41;78.76;100369.22;4973611;28;20184;-71
2021/04/15 02:27:37;;;;;;;19.10;14.18;;;;;;;1.38;78.82;100366.59;4973438;28;20250;-71
2021/04/15 02:30:11;;;;;;;15.95;13.55;;;;;;;1.53;78.65;100370.00;4973781;28;20968;-70
2021/04/15 02:32:40;;;;;;;19.30;14.98;;;;;;;1.48;78.57;100374.47;4973317;28;20192;-69
2021/04/15 02:35:11;;;;;;;17.30;14.68;;;;;;;1.27;79.45;100371.09;4973292;28;20254;-70
2021/04/15 02:37:43;;;;;;;18.42;14.48;;;;;;;1.20;79.80;100364.97;4973768;28;20192;-71
2021/04/15 02:40:16;;;;;;;18.10;15.05;;;;;;;1.02;80.73;100384.56;4973774;28;20690;-71
2021/04/15 02:42:45;;;;;;;19.38;15.25;;;;;;;1.06;80.62;100371.25;4973313;28;20627;-71
2021/04/15 02:45:22;;;;;;;19.88;14.38;;;;;;;1.03;80.59;100367.72;4973501;28;20299;-70
2021/04/15 02:47:53;;;;;;;17.15;14.13;;;;;;;1.11;80.75;100370.34;4973424;28;20184;-71
2021/04/15 02:50:23;;;;;;;16.92;13.57;;;;;;;1.21;80.47;100377.31;4973436;28;20295;-71
2021/04/15 02:52:56;;;;;;;18.73;15.30;;;;;;;1.15;80.49;100372.06;4973622;28;20267;-69
2021/04/15 02:55:26;;;;;;;19.48;14.73;;;;;;;1.39;79.56;100375.44;4973146;28;20271;-72
2021/04/15 02:57:59;;;;;;;20.33;14.02;;;;;;;1.53;78.96;100376.19;4973516;28;20193;-71
2021/04/15 03:00:30;;;;;;;21.60;16.13;;;;;;;1.32;79.24;100368.41;4973468;28;20702;-71
2021/04/15 03:03:01;;;;;;;17.40;14.10;;;;;;;1.43;79.14;100370.09;4973327;28;20690;-71
2021/04/15 03:05:30;;;;;;;16.48;14.77;;;;;;;1.40;78.94;100374.53;4973373;28;20270;-69
2021/04/15 03:07:59;;;;;;;17.75;15.30;;;;;;;1.31;79.35;100369.28;4973383;28;20615;-70
2021/04/15 03:10:29;;;;;;;17.95;15.02;;;;;;;1.16;80.03;100368.53;4973330;28;20189;-69
2021/04/15 03:13:01;;;;;;;17.85;14.10;;;;;;;1.18;80.26;100365.88;4976338;28;20643;-70
2021/04/15 03:15:32;;;;;;;18.98;15.13;;;;;;;1.12;80.60;100366.78;4976797;28;20216;-71
2021/04/15 03:18:02;;;;;;;16.85;14.02;;;;;;;1.39;79.62;100364.81;4976529;28;20196;-71
2021/04/15 03:20:35;;;;;;;21.08;16.05;;;;;;;1.08;80.45;100365.03;4976898;28;20635;-72
2021/04/15 03:23:08;;;;;;;16.95;12.90;;;;;;;0.92;81.31;100368.69;4976274;28;20204;-72
2021/04/15 03:25:35;;;;;;;17.40;15.00;;;;;;;0.92;81.26;100369.56;4976362;28;20218;-70
2021/04/15 03:28:10;;;;;;;18.50;14.35;;;;;;;1.02;80.93;100360.69;4976622;28;20230;-70
2021/04/15 03:30:43;;;;;;;15.38;13.20;;;;;;;0.86;81.42;100374.03;4976622;28;20731;-72
2021/04/15 03:33:12;;;;;;;18.00;15.48;;;;;;;1.01;81.13;100356.25;4976083;28;20185;-71
2021/04/15 03:35:43;;;;;;;17.83;15.10;;;;;;;1.27;80.01;100370.22;4976447;28;20624;-70
2021/04/15 03:38:13;;;;;;;19.17;15.15;;;;;;;1.39;79.44;100364.81;4976209;28;20184;-71
2021/04/15 03:40:46;;;;;;;21.55;16.40;;;;;;;1.30;79.39;100373.72;4976365;28;20228;-70
2021/04/15 03:43:18;;;;;;;21.92;14.98;;;;;;;1.02;80.48;100370.41;4976689;28;20279;-69
2021/04/15 03:45:50;;;;;;;17.13;14.40;;;;;;;1.10;80.28;100373.00;4976004;28;20208;-71
2021/04/15 03:48:20;;;;;;;23.10;15.02;;;;;;;1.10;80.27;100370.34;4975985;28;20316;-71
2021/04/15 03:50:50;;;;;;;18.70;14.60;;;;;;;1.06;80.39;100382.72;4976106;28;20576;-70
2021/04/15 03:53:20;;;;;;;18.30;14.48;;;;;;;1.11;80.53;100382.69;4975673;28;20243;-71
2021/04/15 03:55:53;;;;;;;17.13;14.35;;;;;;;1.19;80.50;100375.59;4975904;28;20541;-69
2021/04/15 03:58:24;;;;;;;21.65;16.13;;;;;;;1.15;80.42;100377.38;4975672;28;20278;-69
2021/04/15 04:00:55;;;;;;;22.15;15.38;;;;;;;1.17;80.56;100380.88;4975615;28;20212;-68
2021/04/15 04:03:24;;;;;;;18.35;15.48;;;;;;;1.31;80.14;100382.56;4975701;28;20240;-70
2021/04/15 04:05:56;;;;;;;20.88;15.98;;;;;;;1.14;80.38;100375.63;4975410;28;20278;-72
2021/04/15 04:08:32;;;;;;;19.80;14.52;;;;;;;0.86;81.16;100374.03;4975726;28;20188;-71
2021/04/15 04:10:58;;;;;;;20.98;15.45;;;;;;;0.96;81.40;100379.28;4975630;28;20526;-72
2021/04/15 04:13:30;;;;;;;19.10;15.60;;;;;;;1.05;81.37;100381.00;4975342;28;20200;-71
2021/04/15 04:16:05;;;;;;;20.60;16.00;;;;;;;1.07;80.98;100370.38;4975380;28;20199;-72
2021/04/15 04:18:43;;;;;;;20.02;15.75;;;;;;;1.07;80.88;100379.22;4975203;28;20199;-71
2021/04/15 04:21:16;;;;;;;21.48;16.05;;;;;;;1.04;81.02;100374.81;4975238;28;20196;-70
2021/04/15 04:23:46;;;;;;;22.33;16.13;;;;;;;1.15;80.54;100385.31;4975056;28;20216;-69
2021/04/15 04:26:20;;;;;;;21.17;17.15;;;;;;;1.15;80.93;100384.44;4975128;28;20259;-72
2021/04/15 04:29:07;;;;;;;24.75;16.52;;;;;;;1.15;80.87;100387.09;4975063;28;20188;-70
2021/04/15 04:31:38;;;;;;;24.38;16.25;;;;;;;1.01;81.29;100393.38;4975045;28;20192;-70
2021/04/15 04:34:06;;;;;;;20.25;16.40;;;;;;;0.91;81.45;100391.69;4975130;28;20192;-71
2021/04/15 04:36:34;;;;;;;19.55;16.60;;;;;;;0.86;82.13;100401.44;4975135;28;20476;-71
2021/04/15 04:39:00;;;;;;;20.85;16.30;;;;;;;0.90;81.59;100397.00;4974805;28;20291;-70
2021/04/15 04:41:32;;;;;;;23.42;16.33;;;;;;;0.91;81.32;100399.66;4974912;28;20279;-72
2021/04/15 04:44:03;;;;;;;24.55;17.58;;;;;;;0.81;81.48;100411.19;4974712;28;20275;-72
2021/04/15 04:46:38;;;;;;;18.92;16.40;;;;;;;0.86;81.66;100404.09;4975028;28;20557;-72
2021/04/15 04:49:07;;;;;;;20.50;15.95;;;;;;;0.91;81.48;100404.06;4975005;28;20275;-70
2021/04/15 04:51:45;;;;;;;20.10;15.52;;;;;;;0.62;82.49;100408.63;4974848;28;20271;-70
2021/04/15 04:54:12;;;;;;;23.98;17.42;;;;;;;0.75;82.51;100403.28;4974922;28;20188;-71
2021/04/15 04:56:43;;;;;;;25.48;16.60;;;;;;;0.64;82.44;100416.56;4974430;28;20324;-70
2021/04/15 04:59:18;;;;;;;22.80;17.15;;;;;;;0.67;83.25;100408.59;4975008;28;20231;-69
2021/04/15 05:01:45;;;;;;;25.25;17.75;;;;;;;0.75;83.03;100414.75;4974449;28;20205;-72
2021/04/15 05:04:12;;;;;;;23.27;18.40;;;;;;;0.64;82.96;100413.94;4974660;28;20235;-71
2021/04/15 05:06:40;;;;;;;24.15;18.25;;;;;;;0.76;82.86;100415.63;4974881;28;20674;-69
2021/04/15 05:09:16;;;;;;;22.00;18.15;;;;;;;0.88;82.18;100415.56;4974458;28;20184;-70
2021/04/15 05:11:44;;;;;;;26.17;17.40;;;;;;;0.73;82.32;100419.19;4974553;28;20196;-69
2021/04/15 05:14:12;;;;;;;23.27;18.00;;;;;;;0.91;82.41;100419.97;4974625;28;20204;-71
2021/04/15 05:16:43;;;;;;;25.48;18.90;;;;;;;0.93;82.24;100424.38;4974979;28;20271;-70
2021/04/15 05:19:10;;;;;;;22.77;18.02;;;;;;;0.92;82.48;100422.59;4974875;28;20271;-71
2021/04/15 05:21:38;;;;;;;27.70;19.65;;;;;;;0.91;82.27;100426.16;4974220;28;20220;-71
2021/04/15 05:24:12;;;;;;;26.73;18.38;;;;;;;1.00;81.63;100419.94;4974489;28;20223;-71
2021/04/15 05:26:41;;;;;;;21.60;17.65;;;;;;;1.03;82.12;100419.91;4974570;28;20622;-70
2021/04/15 05:29:13;;;;;;;24.75;18.55;;;;;;;1.14;81.83;100419.84;4974246;28;20240;-72
2021/04/15 05:31:42;;;;;;;26.75;18.98;;;;;;;1.24;81.92;100421.53;4974209;28;20246;-70
2021/04/15 05:34:22;;;;;;;22.55;17.45;;;;;;;1.22;81.62;100428.59;4973346;28;20199;-71
2021/04/15 05:36:51;;;;;;;23.33;19.40;;;;;;;1.39;81.08;100432.03;4974346;28;20604;-72
2021/04/15 05:39:19;;;;;;;23.63;17.58;;;;;;;1.36;81.08;100425.88;4973757;28;20188;-71
2021/04/15 05:41:49;;;;;;;21.88;16.50;;;;;;;1.32;81.39;100422.34;4974016;28;20382;-69
2021/04/15 05:44:21;;;;;;;22.90;18.55;;;;;;;1.29;81.62;100434.75;4973847;28;20195;-71
2021/04/15 05:46:51;;;;;;;22.38;17.25;;;;;;;1.44;81.66;100427.56;4974013;28;20298;-72
2021/04/15 05:49:21;;;;;;;27.45;17.83;;;;;;;1.72;80.88;100432.66;4973900;28;20581;-70
2021/04/15 05:51:53;;;;;;;26.10;18.08;;;;;;;1.87;80.03;100418.34;4973268;28;20258;-72
2021/04/15 05:54:22;;;;;;;25.05;17.58;;;;;;;1.82;79.67;100437.00;4973941;28;20216;-71
2021/04/15 05:57:00;;;;;;;22.88;15.05;;;;;;;1.94;78.88;100424.50;4973661;28;20215;-72
2021/04/15 05:59:51;;;;;;;21.67;17.02;;;;;;;2.07;78.67;100431.44;4973337;28;20199;-70
2021/04/15 06:02:35;;;;;;;29.65;17.17;;;;;;;2.23;78.34;100433.03;4969230;28;20231;-72
2021/04/15 06:05:13;;;;;;;24.70;17.80;;;;;;;2.47;77.55;100434.56;4973856;28;20214;-69
2021/04/15 06:07:42;;;;;;;23.77;17.98;;;;;;;2.39;77.33;100431.09;4974177;28;20184;-72
2021/04/15 06:10:11;;;;;;;22.27;16.98;;;;;;;2.65;76.36;100437.91;4973861;28;20200;-69
2021/04/15 06:12:47;;;;;;;23.05;16.60;;;;;;;2.80;75.97;100432.38;4973866;28;20335;-71
2021/04/15 06:15:16;;;;;;;21.52;16.13;;;;;;;2.70;76.67;100436.94;4973524;28;20192;-70
2021/04/15 06:17:48;;;;;;;23.15;17.70;;;;;;;2.79;76.51;100435.06;4973425;28;20193;-71
2021/04/15 06:20:21;;;;;;;17.33;13.93;;;;;;;2.79;76.27;100435.06;4973317;28;20204;-71
2021/04/15 06:22:52;;;;;;;23.67;17.42;;;;;;;2.97;75.99;100436.59;4973581;28;20224;-70
2021/04/15 06:25:21;;;;;;;18.40;15.65;;;;;;;3.19;75.22;100435.41;4973511;28;20233;-71
2021/04/15 06:27:49;;;;;;;19.58;15.63;;;;;;;3.27;74.72;100443.25;4973458;28;20223;-71
2021/04/15 06:30:20;;;;;;;19.13;15.60;;;;;;;3.24;74.65;100436.19;4973477;28;20307;-71
2021/04/15 06:32:53;;;;;;;20.13;15.45;;;;;;;3.45;74.04;100432.31;4973318;28;20271;-71
2021/04/15 06:35:23;;;;;;;19.17;15.00;;;;;;;3.50;74.16;100440.22;4973670;28;20207;-70
2021/04/15 06:37:54;;;;;;;20.40;15.10;;;;;;;3.62;73.63;100445.38;4973807;28;20724;-70
2021/04/15 06:40:58;;;;;;;20.08;15.20;;;;;;;3.79;72.62;100442.44;4973783;28;20201;-71
2021/04/15 06:43:56;;;;;;;19.65;14.90;;;;;;;3.93;72.16;100434.19;4973463;28;20192;-70
2021/04/15 06:46:45;;;;;;;19.77;13.77;;;;;;;4.19;71.31;100444.41;4943120;28;20318;-68
2021/04/15 06:49:27;;;;;;;17.23;12.82;;;;;;;4.13;71.14;100437.38;4977216;28;20197;-71
2021/04/15 06:52:03;;;;;;;16.35;13.73;;;;;;;4.35;70.46;100442.31;4977020;28;20231;-69
2021/04/15 06:54:46;;;;;;;15.00;13.35;;;;;;;4.57;69.53;100443.66;4977196;28;20622;-71
2021/04/15 06:57:37;;;;;;;15.00;11.63;;;;;;;4.44;69.72;100438.59;4977173;28;20656;-70
2021/04/15 07:00:15;;;;;;;15.45;12.27;;;;;;;4.80;68.95;100444.97;4976861;28;20287;-71
2021/04/15 07:02:54;;;;;;;15.30;11.63;;;;;;;4.95;68.33;100433.97;4977019;28;20237;-70
2021/04/15 07:05:25;;;;;;;14.80;11.65;;;;;;;4.94;68.11;100440.22;4976870;28;20522;-70
2021/04/15 07:07:58;;;;;;;12.70;10.73;;;;;;;4.79;67.81;100437.88;4977005;28;20578;-73
2021/04/15 07:10:50;;;;;;;16.35;10.30;;;;;;;5.09;67.50;100435.44;4976912;28;20214;-70
2021/04/15 07:13:53;;;;;;;12.27;9.90;;;;;;;5.29;66.64;100437.66;4966092;28;20294;-70
2021/04/15 07:16:58;;;;;;;11.15;9.45;;;;;;;5.18;66.86;100436.13;4937194;28;20206;-69
2021/04/15 07:19:48;;;;;;;11.13;9.77;;;;;;;5.24;66.42;100443.13;4957120;28;20293;-70
2021/04/15 07:22:53;;;;;;;11.02;8.73;;;;;;;5.39;65.64;100436.56;4976375;28;20333;-71
2021/04/15 07:25:33;;;;;;;10.00;8.75;;;;;;;5.39;65.37;100439.22;4918605;28;20292;-71
2021/04/15 07:28:37;;;;;;;11.07;9.65;;;;;;;5.51;64.85;100435.38;4976192;28;20190;-71
2021/04/15 07:31:24;;;;;;;11.27;9.23;;;;;;;5.76;64.67;100436.53;4976140;28;20932;-71
2021/04/15 07:34:23;;;;;;;11.25;9.45;;;;;;;5.67;64.05;100427.88;4976016;28;20277;-69
2021/04/15 07:37:08;;;;;;;10.95;9.75;;;;;;;5.46;64.63;100440.81;4975818;28;20629;-70
2021/04/15 07:40:01;;;;;;;14.90;11.27;;;;;;;5.85;63.75;100433.63;4976038;28;20190;-70
2021/04/15 07:42:46;;;;;;;12.73;10.20;;;;;;;6.01;62.89;100418.09;4976339;28;20191;-71
2021/04/15 07:45:15;;;;;;;11.05;9.85;;;;;;;6.23;62.42;100428.22;4976314;28;20239;-69
2021/04/15 07:48:07;;;;;;;10.35;8.77;;;;;;;6.07;62.23;100434.91;4976070;28;20225;-70
2021/04/15 07:51:06;;;;;;;9.80;8.40;;;;;;;6.00;62.48;100432.38;4976382;28;20269;-71
2021/04/15 07:53:48;;;;;;;11.98;8.85;;;;;;;6.12;62.22;100427.63;4976400;28;20221;-70
2021/04/15 07:56:47;;;;;;;10.85;8.60;;;;;;;6.39;61.40;100434.91;4976052;28;20190;-70
2021/04/15 07:59:35;;;;;;;10.88;8.60;;;;;;;5.92;62.31;100434.34;4975818;28;20198;-69
2021/04/15 08:02:28;;;;;;;9.50;8.23;;;;;;;6.15;61.71;100432.88;4975991;28;20649;-69
2021/04/15 08:05:27;;;;;;;18.33;14.18;;;;;;;6.61;60.67;100434.31;4975699;28;20231;-70
2021/04/15 08:08:12;;;;;;;11.32;8.90;;;;;;;7.08;59.30;100434.72;4975748;28;20299;-70
2021/04/15 08:11:30;;;;;;;12.60;8.40;;;;;;;7.43;56.77;100425.56;4976053;28;20634;-70
2021/04/15 08:14:19;;;;;;;7.70;7.00;;;;;;;7.52;55.50;100427.06;4975740;28;20234;-71
2021/04/15 08:16:56;;;;;;;9.23;7.72;;;;;;;7.60;55.22;100435.75;4975317;28;20235;-70
2021/04/15 08:19:52;;;;;;;8.40;7.60;;;;;;;7.67;54.26;100428.41;4966793;28;61357;-71
2021/04/15 08:22:34;;;;;;;9.15;7.90;;;;;;;7.38;55.99;100438.25;4953260;29;20197;-70
2021/04/15 08:25:12;;;;;;;9.60;8.02;;;;;;;8.03;54.47;100433.44;4955553;28;20203;-71
2021/04/15 08:28:03;;;;;;;8.73;7.43;;;;;;;8.13;53.29;100434.88;4952006;29;20260;-69
2021/04/15 08:30:47;;;;;;;9.00;8.10;;;;;;;8.79;51.83;100437.88;4954024;29;20647;-71
2021/04/15 08:33:38;;;;;;;12.98;7.57;;;;;;;8.83;50.92;100438.66;4954207;29;20311;-69
2021/04/15 08:36:22;;;;;;;10.95;7.43;;;;;;;8.60;50.03;100440.38;4952956;29;20276;-71
2021/04/15 08:38:57;;;;;;;9.88;7.50;;;;;;;8.38;50.64;100436.69;4954993;28;20200;-69
2021/04/15 08:41:41;;;;;;;9.82;6.70;;;;;;;8.36;49.68;100440.28;4955261;28;20188;-69
2021/04/15 08:44:27;;;;;;;7.50;6.38;;;;;;;8.58;48.92;100444.94;4953034;29;20210;-69
2021/04/15 08:47:06;;;;;;;7.45;6.72;;;;;;;8.75;48.84;100437.16;4953663;29;20308;-68
2021/04/15 08:49:38;;;;;;;7.05;6.35;;;;;;;8.91;47.23;100437.44;4954447;29;20283;-69
2021/04/15 08:52:22;;;;;;;7.65;6.18;;;;;;;8.56;48.04;100442.28;4954929;28;20244;-71
2021/04/15 08:54:59;;;;;;;7.82;6.07;;;;;;;8.51;47.92;100430.84;4954295;28;20654;-70
2021/04/15 08:57:37;;;;;;;6.55;5.55;;;;;;;8.76;47.26;100428.13;4960287;28;20227;-70
2021/04/15 09:00:13;;;;;;;7.82;6.13;;;;;;;9.36;45.65;100439.28;4952116;29;20279;-70
2021/04/15 09:02:50;;;;;;;7.15;5.57;;;;;;;9.46;43.91;100434.41;4953800;28;20332;-70
2021/04/15 09:05:27;;;;;;;7.35;5.13;;;;;;;9.19;43.90;100433.69;4950836;29;20224;-71
2021/04/15 09:08:02;;;;;;;5.18;4.68;;;;;;;9.00;44.74;100440.69;4950801;29;20277;-71
2021/04/15 09:10:33;;;;;;;6.10;5.18;;;;;;;9.73;42.86;100426.16;4949563;29;20193;-69
2021/04/15 09:13:12;;;;;;;6.00;5.40;;;;;;;10.47;41.97;100418.53;4950121;29;20218;-71
2021/04/15 09:15:47;;;;;;;6.40;5.53;;;;;;;10.25;42.33;100421.25;4951340;29;20205;-70
2021/04/15 09:18:20;;;;;;;7.32;5.35;;;;;;;10.50;42.02;100431.81;4949589;29;20670;-72
2021/04/15 09:20:54;;;;;;;9.32;5.50;;;;;;;10.93;40.85;100431.69;4951914;29;20610;-70
2021/04/15 09:23:31;;;;;;;7.05;5.15;;;;;;;10.63;40.45;100424.97;4953696;29;20249;-71
2021/04/15 09:26:15;;;;;;;5.82;5.30;;;;;;;11.19;39.08;100423.28;4953725;29;20223;-71
2021/04/15 09:28:56;;;;;;;6.40;5.80;;;;;;;10.95;40.38;100428.00;4953657;29;20279;-71
2021/04/15 09:31:32;;;;;;;6.97;4.88;;;;;;;10.78;41.12;100426.06;4953535;29;20219;-70
2021/04/15 09:34:48;;;;;;;6.35;5.75;;;;;;;11.11;40.91;100425.44;4958591;28;20200;-70
2021/04/15 09:37:38;;;;;;;5.38;4.65;;;;;;;11.30;40.04;100425.44;4949789;29;20271;-71
2021/04/15 09:40:08;;;;;;;6.30;5.35;;;;;;;10.75;40.80;100430.72;4950944;29;20653;-71
2021/04/15 09:42:48;;;;;;;6.32;5.22;;;;;;;9.97;40.31;100425.13;4953097;28;20204;-72
2021/04/15 09:45:30;;;;;;;6.40;5.65;;;;;;;9.49;41.77;100425.34;4953289;28;20623;-69
2021/04/15 09:48:18;;;;;;;6.88;5.10;;;;;;;9.64;41.18;100424.72;4953313;28;20191;-71
2021/04/15 09:50:49;;;;;;;5.47;4.97;;;;;;;9.97;41.00;100427.81;4953762;29;20191;-71
2021/04/15 09:53:37;;;;;;;5.40;4.90;;;;;;;9.92;40.22;100412.78;4953597;29;20202;-70
2021/04/15 09:56:16;;;;;;;5.68;5.18;;;;;;;9.81;41.39;100421.31;4951636;29;20273;-68
2021/04/15 09:58:55;;;;;;;5.78;5.20;;;;;;;9.82;41.29;100421.25;4952053;29;20195;-68
2021/04/15 10:01:24;;;;;;;9.00;8.10;;;;;;;9.81;41.75;100408.75;4953331;28;20550;-70
2021/04/15 10:04:00;;;;;;;6.63;5.20;;;;;;;9.66;42.13;100420.16;4953265;29;20235;-70
2021/04/15 10:06:29;;;;;;;6.32;5.72;;;;;;;9.84;42.21;100407.75;4953468;28;20703;-69
2021/04/15 10:09:25;;;;;;;6.80;5.85;;;;;;;9.55;40.52;100417.91;4953619;29;20196;-68
2021/04/15 10:12:02;;;;;;;5.80;5.20;;;;;;;9.61;41.21;100416.78;4952451;28;20674;-70
2021/04/15 10:14:35;;;;;;;7.47;5.38;;;;;;;10.10;41.00;100413.81;4950315;28;20249;-69
2021/04/15 10:17:16;;;;;;;6.82;6.22;;;;;;;10.03;40.18;100402.44;4950588;29;20317;-71
2021/04/15 10:20:13;;;;;;;6.78;5.00;;;;;;;9.77;39.45;100387.44;4951394;28;20683;-70
2021/04/15 10:22:50;;;;;;;7.97;5.00;;;;;;;10.20;38.90;100399.03;4955281;29;20249;-69
2021/04/15 10:25:23;;;;;;;4.97;4.57;;;;;;;10.49;38.58;100397.78;4957341;29;20194;-70
2021/04/15 10:28:02;;;;;;;6.63;5.75;;;;;;;10.85;38.79;100395.22;4957237;29;20245;-70
2021/04/15 10:31:05;;;;;;;5.50;5.00;;;;;;;11.21;38.01;100380.91;4957269;28;20202;-69
2021/04/15 10:33:52;;;;;;;4.85;4.35;;;;;;;11.50;37.84;100380.47;4955876;29;20247;-69
2021/04/15 10:36:49;;;;;;;7.65;6.85;;;;;;;11.69;36.78;100374.06;4955473;29;20284;-70
2021/04/15 10:39:52;;;;;;;5.90;5.40;;;;;;;12.39;35.79;100373.22;4955393;29;20706;-69
2021/04/15 10:42:56;;;;;;;6.10;5.50;;;;;;;12.05;35.54;100378.56;4956349;29;20196;-69
2021/04/15 10:46:02;;;;;;;5.18;4.72;;;;;;;11.23;36.67;100380.84;4956230;29;20544;-69
2021/04/15 10:48:40;;;;;;;5.30;4.60;;;;;;;10.74;37.26;100380.47;4897499;29;20230;-69
2021/04/15 10:51:12;;;;;;;5.88;5.38;;;;;;;10.49;38.63;100388.81;4953830;28;20215;-70
2021/04/15 10:53:50;;;;;;;5.45;4.90;;;;;;;10.08;39.84;100378.91;4956630;28;20214;-69
2021/04/15 10:56:43;;;;;;;5.40;4.90;;;;;;;10.44;38.97;100375.56;4956704;29;20219;-68
2021/04/15 10:59:15;;;;;;;5.03;4.53;;;;;;;10.67;37.42;100381.72;4953450;29;20188;-69
2021/04/15 11:01:45;;;;;;;4.85;4.35;;;;;;;10.83;36.51;100372.88;4956449;28;20207;-70
2021/04/15 11:04:25;;;;;;;5.30;4.80;;;;;;;11.16;34.73;100366.78;4954032;29;20263;-70
2021/04/15 11:06:55;;;;;;;5.00;4.60;;;;;;;11.50;34.25;100353.50;4954102;29;20261;-69
2021/04/15 11:09:32;;;;;;;5.13;4.63;;;;;;;11.72;34.12;100353.28;4956816;29;20207;-68
2021/04/15 11:12:03;;;;;;;5.90;5.13;;;;;;;11.06;35.53;100360.13;4953803;29;20284;-69
2021/04/15 11:14:35;;;;;;;5.00;4.60;;;;;;;11.20;35.77;100359.44;4956661;29;20204;-71
2021/04/15 11:17:06;;;;;;;4.07;3.78;;;;;;;11.46;35.77;100360.84;4956325;29;20563;-70
2021/04/15 11:19:32;;;;;;;4.90;4.53;;;;;;;12.02;35.08;100348.16;4956055;29;20292;-73
2021/04/15 11:22:14;;;;;;;4.35;3.65;;;;;;;12.02;33.95;100346.31;4955952;29;20212;-70
2021/04/15 11:24:41;;;;;;;5.30;4.65;;;;;;;12.02;33.70;100345.47;4953056;29;20207;-70
2021/04/15 11:27:09;;;;;;;7.45;6.75;;;;;;;12.15;33.71;100341.16;4955672;28;20216;-69
2021/04/15 11:29:39;;;;;;;4.65;4.28;;;;;;;11.93;32.79;100337.84;4964626;28;20283;-70
2021/04/15 11:32:24;;;;;;;5.25;4.70;;;;;;;12.07;33.80;100346.97;4957100;28;20212;-68
2021/04/15 11:35:01;;;;;;;7.38;4.97;;;;;;;11.57;34.98;100339.59;4955952;29;20224;-71
2021/04/15 11:37:28;;;;;;;4.70;4.30;;;;;;;10.89;35.94;100354.66;4954213;29;20256;-69
2021/04/15 11:40:14;;;;;;;5.57;4.45;;;;;;;10.75;36.15;100349.91;4956086;29;20203;-70
2021/04/15 11:42:41;;;;;;;5.20;4.70;;;;;;;10.66;36.05;100336.88;4955562;29;20193;-69
2021/04/15 11:45:12;;;;;;;4.82;4.32;;;;;;;10.96;35.58;100343.50;4955963;28;20616;-69
2021/04/15 11:47:39;;;;;;;5.50;4.45;;;;;;;11.01;34.64;100338.78;4953461;29;20217;-70
2021/04/15 11:50:13;;;;;;;4.80;4.40;;;;;;;11.65;34.03;100333.84;4956256;28;20279;-70
2021/04/15 11:52:41;;;;;;;4.57;4.18;;;;;;;12.34;32.93;100330.25;4956455;29;20197;-72
2021/04/15 11:55:25;;;;;;;4.20;3.83;;;;;;;12.40;32.63;100331.75;4956596;29;20239;-70
2021/04/15 11:57:57;;;;;;;4.07;3.67;;;;;;;12.23;32.68;100313.75;4955933;29;20197;-71
2021/04/15 12:00:29;;;;;;;5.35;4.10;;;;;;;12.51;32.47;100323.94;4956493;29;20686;-72
2021/04/15 12:03:10;;;;;;;5.32;4.50;;;;;;;11.65;36.12;100333.84;4955954;29;20240;-71